createdAt,value
2023-04-30T00:02:29.368Z,101489.91
2023-04-30T00:05:32.780Z,101486.59
2023-04-30T00:08:37.094Z,101486.56
2023-04-30T00:11:40.164Z,101487.31
2023-04-30T00:14:43.177Z,101487.09
2023-04-30T00:17:46.256Z,101492.97
2023-04-30T00:20:51.863Z,101502.63
2023-04-30T00:23:56.272Z,101510.19
2023-04-30T00:26:59.276Z,101504.00
2023-04-30T00:30:02.313Z,101503.16
2023-04-30T00:33:06.932Z,101515.50
2023-04-30T00:36:09.942Z,101519.09
2023-04-30T00:39:14.266Z,101518.47
2023-04-30T00:42:20.018Z,101510.81
2023-04-30T00:45:24.675Z,101518.22
2023-04-30T00:48:28.839Z,101521.09
2023-04-30T00:51:33.900Z,101529.72
2023-04-30T00:54:38.488Z,101531.47
2023-04-30T00:57:41.908Z,101535.97
2023-04-30T01:00:47.145Z,101541.66
2023-04-30T01:03:50.488Z,101551.19
2023-04-30T01:06:53.678Z,101552.25
2023-04-30T01:09:58.498Z,101551.47
2023-04-30T01:13:11.530Z,101555.88
2023-04-30T01:16:20.669Z,101556.72
2023-04-30T01:19:40.229Z,101565.72
2023-04-30T01:22:52.003Z,101559.00
2023-04-30T01:26:14.430Z,101567.66
2023-04-30T01:29:23.225Z,101565.22
2023-04-30T01:32:26.738Z,101564.31
2023-04-30T01:35:45.685Z,101569.38
2023-04-30T01:39:19.354Z,101565.28
2023-04-30T01:42:24.511Z,101573.63
2023-04-30T01:46:03.265Z,101562.63
2023-04-30T01:49:18.590Z,101577.22
2023-04-30T01:52:33.809Z,101588.00
2023-04-30T01:55:52.031Z,101586.66
2023-04-30T01:58:58.768Z,101590.56
2023-04-30T02:02:06.298Z,101591.34
2023-04-30T02:05:10.277Z,101594.66
2023-04-30T02:08:15.604Z,101604.94
2023-04-30T02:11:18.774Z,101600.97
2023-04-30T02:14:23.916Z,101606.59
2023-04-30T02:17:31.339Z,101609.91
2023-04-30T02:20:34.910Z,101614.25
2023-04-30T02:23:37.975Z,101613.66
2023-04-30T02:26:41.136Z,101621.84
2023-04-30T02:29:44.296Z,101628.69
2023-04-30T02:32:48.950Z,101625.56
2023-04-30T02:35:52.003Z,101626.69
2023-04-30T02:38:54.991Z,101629.28
2023-04-30T02:41:58.038Z,101637.59
2023-04-30T02:45:01.355Z,101634.34
2023-04-30T02:48:06.092Z,101631.44
2023-04-30T02:51:09.758Z,101632.22
2023-04-30T02:54:12.917Z,101633.00
2023-04-30T02:57:15.985Z,101641.66
2023-04-30T03:00:19.211Z,101642.75
2023-04-30T03:03:24.025Z,101645.59
2023-04-30T03:06:27.746Z,101644.00
2023-04-30T03:09:31.581Z,101642.34
2023-04-30T03:12:34.693Z,101656.31
2023-04-30T03:15:38.335Z,101663.63
2023-04-30T03:18:43.160Z,101662.25
2023-04-30T03:21:46.468Z,101656.94
2023-04-30T03:24:49.778Z,101660.19
2023-04-30T03:27:52.816Z,101667.06
2023-04-30T03:30:56.168Z,101661.91
2023-04-30T03:34:00.592Z,101665.28
2023-04-30T03:37:04.098Z,101663.72
2023-04-30T03:40:09.264Z,101665.53
2023-04-30T03:43:13.690Z,101672.47
2023-04-30T03:46:16.933Z,101672.47
2023-04-30T03:49:22.119Z,101670.91
2023-04-30T03:52:26.475Z,101679.66
2023-04-30T03:55:29.999Z,101677.97
2023-04-30T03:58:33.306Z,101690.09
2023-04-30T04:01:36.720Z,101690.91
2023-04-30T04:04:41.490Z,101687.66
2023-04-30T04:07:47.312Z,101696.28
2023-04-30T04:10:50.856Z,101692.84
2023-04-30T04:13:54.053Z,101696.31
2023-04-30T04:17:00.111Z,101701.50
2023-04-30T04:20:07.352Z,101708.44
2023-04-30T04:23:11.625Z,101709.50
2023-04-30T04:26:14.981Z,101711.19
2023-04-30T04:29:18.064Z,101712.06
2023-04-30T04:32:22.782Z,101715.56
2023-04-30T04:35:27.553Z,101719.91
2023-04-30T04:38:31.006Z,101718.94
2023-04-30T04:41:35.851Z,101721.56
2023-04-30T04:44:41.298Z,101727.59
2023-04-30T04:47:44.785Z,101734.34
2023-04-30T04:50:49.746Z,101738.69
2023-04-30T04:53:52.791Z,101747.19
2023-04-30T04:56:56.524Z,101744.53
2023-04-30T05:00:00.976Z,101747.81
2023-04-30T05:03:04.350Z,101760.66
2023-04-30T05:06:09.277Z,101760.56
2023-04-30T05:09:12.367Z,101757.09
2023-04-30T05:12:15.803Z,101769.03
2023-04-30T05:15:19.099Z,101763.66
2023-04-30T05:18:22.258Z,101777.28
2023-04-30T05:21:30.221Z,101781.53
2023-04-30T05:24:34.163Z,101784.97
2023-04-30T05:27:37.238Z,101788.25
2023-04-30T05:30:40.440Z,101789.91
2023-04-30T05:33:43.519Z,101790.81
2023-04-30T05:36:47.841Z,101788.94
2023-04-30T05:39:50.891Z,101795.63
2023-04-30T05:42:54.367Z,101802.47
2023-04-30T05:45:57.463Z,101805.59
2023-04-30T05:49:00.502Z,101807.19
2023-04-30T05:52:05.253Z,101800.06
2023-04-30T05:55:11.248Z,101808.03
2023-04-30T05:58:14.813Z,101805.38
2023-04-30T06:01:19.324Z,101809.97
2023-04-30T06:04:22.357Z,101805.66
2023-04-30T06:07:26.748Z,101808.59
2023-04-30T06:10:30.989Z,101812.47
2023-04-30T06:13:34.472Z,101822.59
2023-04-30T06:16:37.565Z,101827.56
2023-04-30T06:19:40.715Z,101819.22
2023-04-30T06:22:45.315Z,101829.34
2023-04-30T06:25:48.501Z,101826.53
2023-04-30T06:28:51.546Z,101831.03
2023-04-30T06:31:54.733Z,101833.25
2023-04-30T06:34:57.789Z,101835.44
2023-04-30T06:38:02.215Z,101830.41
2023-04-30T06:41:05.353Z,101829.06
2023-04-30T06:44:09.329Z,101831.81
2023-04-30T06:47:12.484Z,101836.00
2023-04-30T06:50:15.870Z,101839.25
2023-04-30T06:53:20.286Z,101832.03
2023-04-30T06:56:23.422Z,101831.50
2023-04-30T06:59:26.624Z,101835.34
2023-04-30T07:02:29.718Z,101826.16
2023-04-30T07:05:33.442Z,101821.81
2023-04-30T07:08:38.609Z,101828.38
2023-04-30T07:11:42.105Z,101823.03
2023-04-30T07:14:45.514Z,101826.78
2023-04-30T07:17:49.549Z,101829.19
2023-04-30T07:20:52.608Z,101825.59
2023-04-30T07:23:57.466Z,101821.13
2023-04-30T07:27:02.944Z,101824.91
2023-04-30T07:30:08.313Z,101823.47
2023-04-30T07:33:11.910Z,101829.91
2023-04-30T07:36:15.258Z,101828.97
2023-04-30T07:39:19.751Z,101827.22
2023-04-30T07:42:23.262Z,101828.25
2023-04-30T07:45:26.714Z,101828.66
2023-04-30T07:48:29.818Z,101828.44
2023-04-30T07:51:34.002Z,101841.59
2023-04-30T07:54:40.086Z,101842.84
2023-04-30T07:57:43.175Z,101835.72
2023-04-30T08:00:48.289Z,101841.78
2023-04-30T08:03:51.444Z,101829.22
2023-04-30T08:06:54.590Z,101836.75
2023-04-30T08:09:58.962Z,101838.34
2023-04-30T08:13:01.989Z,101846.22
2023-04-30T08:16:07.298Z,101840.53
2023-04-30T08:19:10.410Z,101850.19
2023-04-30T08:22:13.799Z,101841.47
2023-04-30T08:25:18.272Z,101842.94
2023-04-30T08:28:21.522Z,101844.47
2023-04-30T08:31:24.719Z,101848.88
2023-04-30T08:34:27.789Z,101847.22
2023-04-30T08:37:30.972Z,101854.19
2023-04-30T08:40:50.957Z,101850.09
2023-04-30T08:43:57.092Z,101845.63
2023-04-30T08:47:01.503Z,101843.03
2023-04-30T08:50:04.804Z,101845.03
2023-04-30T08:53:09.728Z,101843.97
2023-04-30T08:56:14.113Z,101848.75
2023-04-30T08:59:17.126Z,101852.28
2023-04-30T09:02:20.397Z,101840.56
2023-04-30T09:05:23.691Z,101847.31
2023-04-30T09:08:43.083Z,101848.50
2023-04-30T09:11:47.481Z,101846.97
2023-04-30T09:15:09.010Z,101845.00
2023-04-30T09:18:17.465Z,101848.81
2023-04-30T09:21:33.670Z,101862.56
2023-04-30T09:24:52.360Z,101854.88
2023-04-30T09:28:11.395Z,101856.13
2023-04-30T09:31:21.238Z,101849.97
2023-04-30T09:34:35.809Z,101850.84
2023-04-30T09:37:39.435Z,101859.41
2023-04-30T09:40:43.493Z,101852.50
2023-04-30T09:43:50.164Z,101860.53
2023-04-30T09:46:54.142Z,101856.81
2023-04-30T09:49:57.420Z,101865.19
2023-04-30T09:53:08.616Z,101862.75
2023-04-30T09:56:15.690Z,101855.94
2023-04-30T09:59:23.138Z,101848.19
2023-04-30T10:02:26.979Z,101848.88
2023-04-30T10:05:30.227Z,101843.28
2023-04-30T10:08:42.596Z,101834.16
2023-04-30T10:11:55.815Z,101836.53
2023-04-30T10:15:09.547Z,101834.94
2023-04-30T10:18:19.350Z,101827.81
2023-04-30T10:21:26.974Z,101836.03
2023-04-30T10:24:31.154Z,101825.47
2023-04-30T10:27:34.297Z,101836.56
2023-04-30T10:30:39.456Z,101844.78
2023-04-30T10:33:52.267Z,101837.59
2023-04-30T10:37:00.120Z,101837.88
2023-04-30T10:40:05.076Z,101833.16
2023-04-30T10:43:08.155Z,101837.03
2023-04-30T10:46:12.642Z,101829.88
2023-04-30T10:49:16.065Z,101818.81
2023-04-30T10:52:30.597Z,101819.06
2023-04-30T10:55:39.975Z,101820.50
2023-04-30T10:58:44.161Z,101816.03
2023-04-30T11:02:02.403Z,101810.09
2023-04-30T11:05:14.558Z,101806.06
2023-04-30T11:08:18.182Z,101813.59
2023-04-30T11:11:22.079Z,101807.00
2023-04-30T11:14:25.568Z,101810.69
2023-04-30T11:17:30.185Z,101807.50
2023-04-30T11:20:33.406Z,101796.72
2023-04-30T11:23:40.366Z,101801.97
2023-04-30T11:27:07.165Z,101795.16
2023-04-30T11:30:15.561Z,101806.81
2023-04-30T11:33:20.504Z,101798.69
2023-04-30T11:36:23.619Z,101792.97
2023-04-30T11:39:27.937Z,101795.53
2023-04-30T11:42:34.717Z,101799.84
2023-04-30T11:45:40.445Z,101800.31
2023-04-30T11:48:46.698Z,101793.69
2023-04-30T11:51:53.874Z,101782.72
2023-04-30T11:55:01.010Z,101789.81
2023-04-30T11:58:04.555Z,101776.97
2023-04-30T12:01:09.635Z,101782.72
2023-04-30T12:04:14.886Z,101780.59
2023-04-30T12:07:17.986Z,101779.59
2023-04-30T12:10:21.610Z,101778.28
2023-04-30T12:13:24.656Z,101778.31
2023-04-30T12:16:39.474Z,101790.59
2023-04-30T12:19:43.815Z,101779.88
2023-04-30T12:22:47.315Z,101777.53
2023-04-30T12:25:53.215Z,101779.38
2023-04-30T12:28:57.285Z,101777.25
2023-04-30T12:32:01.343Z,101766.69
2023-04-30T12:35:07.705Z,101763.38
2023-04-30T12:38:10.727Z,101768.81
2023-04-30T12:41:15.355Z,101768.66
2023-04-30T12:44:20.901Z,101769.47
2023-04-30T12:47:26.187Z,101763.31
2023-04-30T12:50:31.060Z,101754.09
2023-04-30T12:53:34.187Z,101753.53
2023-04-30T12:56:37.415Z,101759.06
2023-04-30T12:59:58.911Z,101743.50
2023-04-30T13:03:02.025Z,101748.22
2023-04-30T13:06:10.003Z,101742.97
2023-04-30T13:09:13.287Z,101732.31
2023-04-30T13:12:16.310Z,101739.88
2023-04-30T13:15:19.782Z,101744.94
2023-04-30T13:18:23.373Z,101757.59
2023-04-30T13:21:28.009Z,101736.13
2023-04-30T13:24:31.387Z,101734.03
2023-04-30T13:27:34.575Z,101730.41
2023-04-30T13:30:43.248Z,101728.09
2023-04-30T13:33:46.317Z,101734.56
2023-04-30T13:36:52.010Z,101728.50
2023-04-30T13:39:55.332Z,101728.53
2023-04-30T13:42:58.590Z,101730.44
2023-04-30T13:46:01.871Z,101728.50
2023-04-30T13:49:05.718Z,101721.47
2023-04-30T13:52:16.467Z,101718.78
2023-04-30T13:55:19.782Z,101715.53
2023-04-30T13:58:22.856Z,101711.38
2023-04-30T14:01:26.173Z,101701.94
2023-04-30T14:04:30.981Z,101700.97
2023-04-30T14:07:35.496Z,101703.47
2023-04-30T14:10:38.881Z,101701.66
2023-04-30T14:13:45.595Z,101698.16
2023-04-30T14:16:51.354Z,101698.19
2023-04-30T14:19:55.204Z,101698.50
2023-04-30T14:23:01.992Z,101695.78
2023-04-30T14:26:06.584Z,101695.78
2023-04-30T14:29:10.184Z,101683.81
2023-04-30T14:32:15.163Z,101681.94
2023-04-30T14:35:25.565Z,101686.84
2023-04-30T14:38:30.046Z,101683.72
2023-04-30T14:41:37.690Z,101686.34
2023-04-30T14:44:41.696Z,101691.22
2023-04-30T14:53:35.388Z,101674.06
2023-04-30T14:56:39.099Z,101678.31
2023-04-30T15:01:01.038Z,101678.94
2023-04-30T15:04:04.134Z,101677.63
2023-04-30T15:07:07.423Z,101676.50
2023-04-30T15:10:12.723Z,101671.19
2023-04-30T15:13:16.033Z,101671.88
2023-04-30T15:16:19.352Z,101676.25
2023-04-30T15:19:22.701Z,101674.44
2023-04-30T15:22:25.784Z,101671.00
2023-04-30T15:25:30.386Z,101672.84
2023-04-30T15:28:33.607Z,101672.00
2023-04-30T15:31:36.672Z,101669.91
2023-04-30T15:34:40.711Z,101664.72
2023-04-30T15:37:44.778Z,101661.63
2023-04-30T15:40:49.719Z,101664.63
2023-04-30T15:43:52.759Z,101667.19
2023-04-30T15:46:56.720Z,101664.81
2023-04-30T15:49:59.796Z,101658.97
2023-04-30T15:53:02.835Z,101664.38
2023-04-30T15:56:11.272Z,101667.72
2023-04-30T15:59:17.527Z,101669.94
2023-04-30T16:02:22.409Z,101670.00
2023-04-30T16:05:25.880Z,101674.72
2023-04-30T16:08:29.636Z,101665.31
2023-04-30T16:11:34.101Z,101657.88
2023-04-30T16:14:37.286Z,101660.88
2023-04-30T16:17:40.275Z,101661.66
2023-04-30T16:20:43.783Z,101657.22
2023-04-30T16:23:50.420Z,101655.69
2023-04-30T16:26:58.457Z,101660.06
2023-04-30T16:30:01.981Z,101661.28
2023-04-30T16:33:05.502Z,101654.09
2023-04-30T16:36:08.614Z,101644.34
2023-04-30T16:39:12.359Z,101648.53
2023-04-30T16:42:16.739Z,101640.41
2023-04-30T16:45:19.725Z,101655.56
2023-04-30T16:48:22.970Z,101648.16
2023-04-30T16:51:27.303Z,101644.44
2023-04-30T16:54:30.504Z,101640.13
2023-04-30T16:57:34.928Z,101634.69
2023-04-30T17:00:38.016Z,101629.25
2023-04-30T17:03:41.192Z,101640.84
2023-04-30T17:06:44.421Z,101636.78
2023-04-30T17:09:47.715Z,101635.78
2023-04-30T17:12:52.280Z,101633.47
2023-04-30T17:16:01.446Z,101633.06
2023-04-30T17:19:05.548Z,101641.13
2023-04-30T17:22:09.599Z,101634.28
2023-04-30T17:25:12.951Z,101638.06
2023-04-30T17:28:17.632Z,101637.66
2023-04-30T17:31:20.704Z,101637.44
2023-04-30T17:34:23.992Z,101633.91
2023-04-30T17:37:27.150Z,101641.59
2023-04-30T17:40:31.445Z,101634.16
2023-04-30T17:43:35.845Z,101636.44
2023-04-30T17:46:39.585Z,101640.25
2023-04-30T17:49:42.681Z,101641.72
2023-04-30T17:52:45.961Z,101638.06
2023-04-30T17:55:49.084Z,101640.91
2023-04-30T17:58:53.402Z,101630.41
2023-04-30T18:01:56.435Z,101635.44
2023-04-30T18:04:59.524Z,101629.56
2023-04-30T18:08:02.911Z,101623.50
2023-04-30T18:11:08.541Z,101638.66
2023-04-30T18:14:12.913Z,101638.03
2023-04-30T18:17:16.521Z,101642.00
2023-04-30T18:20:19.762Z,101638.50
2023-04-30T18:23:24.301Z,101640.13
2023-04-30T18:26:27.757Z,101642.47
2023-04-30T18:29:32.175Z,101642.88
2023-04-30T18:32:35.976Z,101638.88
2023-04-30T18:35:42.314Z,101645.00
2023-04-30T18:38:45.693Z,101647.47
2023-04-30T18:41:49.386Z,101648.97
2023-04-30T18:44:54.363Z,101653.47
2023-04-30T18:47:57.445Z,101646.19
2023-04-30T18:51:00.937Z,101655.53
2023-04-30T18:54:03.931Z,101657.78
2023-04-30T18:57:07.926Z,101656.59
2023-04-30T19:00:15.048Z,101661.13
2023-04-30T19:03:18.357Z,101662.03
2023-04-30T19:06:23.479Z,101656.16
2023-04-30T19:09:26.555Z,101667.88
2023-04-30T19:12:29.565Z,101663.34
2023-04-30T19:15:33.979Z,101663.28
2023-04-30T19:18:39.520Z,101664.47
2023-04-30T19:21:42.585Z,101672.38
2023-04-30T19:24:45.693Z,101677.56
2023-04-30T19:27:48.997Z,101668.81
2023-04-30T19:30:54.545Z,101671.75
2023-04-30T19:34:01.071Z,101669.88
2023-04-30T19:37:04.265Z,101665.84
2023-04-30T19:40:14.369Z,101669.63
2023-04-30T19:43:20.377Z,101677.75
2023-04-30T19:46:25.613Z,101665.78
2023-04-30T19:49:29.286Z,101668.13
2023-04-30T19:52:32.326Z,101672.16
2023-04-30T19:55:35.350Z,101670.22
2023-04-30T19:58:38.423Z,101677.19
2023-04-30T20:01:43.315Z,101677.88
2023-04-30T20:04:46.333Z,101678.53
2023-04-30T20:07:49.349Z,101677.28
2023-04-30T20:10:57.155Z,101683.22
2023-04-30T20:14:00.313Z,101681.47
2023-04-30T20:17:04.785Z,101682.50
2023-04-30T20:20:09.154Z,101685.06
2023-04-30T20:23:20.645Z,101684.91
2023-04-30T20:26:27.255Z,101685.22
2023-04-30T20:29:30.258Z,101689.63
2023-04-30T20:32:38.982Z,101689.16
2023-04-30T20:35:47.352Z,101694.81
2023-04-30T20:38:56.041Z,101689.91
2023-04-30T20:41:59.196Z,101690.38
2023-04-30T20:45:04.606Z,101698.38
2023-04-30T20:48:10.181Z,101693.09
2023-04-30T20:51:13.623Z,101686.13
2023-04-30T20:54:17.626Z,101697.81
2023-04-30T20:57:20.818Z,101693.34
2023-04-30T21:00:23.886Z,101693.88
2023-04-30T21:03:28.420Z,101689.28
2023-04-30T21:06:31.992Z,101692.00
2023-04-30T21:09:35.781Z,101693.41
2023-04-30T21:12:38.863Z,101688.63
2023-04-30T21:15:43.077Z,101690.72
2023-04-30T21:18:48.809Z,101695.09
2023-04-30T21:21:51.844Z,101697.88
2023-04-30T21:24:55.061Z,101696.19
2023-04-30T21:27:58.299Z,101694.88
2023-04-30T21:31:07.324Z,101703.72
2023-04-30T21:34:11.844Z,101705.81
2023-04-30T21:37:17.193Z,101697.50
2023-04-30T21:40:20.657Z,101696.81
2023-04-30T21:43:23.722Z,101697.78
2023-04-30T21:46:26.800Z,101697.06
2023-04-30T21:49:31.307Z,101691.44
2023-04-30T21:52:34.373Z,101687.34
2023-04-30T21:55:37.390Z,101699.72
2023-04-30T21:58:40.732Z,101694.22
2023-04-30T22:01:43.765Z,101693.38
2023-04-30T22:04:48.204Z,101698.03
2023-04-30T22:07:51.272Z,101697.00
2023-04-30T22:10:58.788Z,101685.41
2023-04-30T22:14:01.867Z,101690.06
2023-04-30T22:17:05.102Z,101690.13
2023-04-30T22:20:10.821Z,101695.44
2023-04-30T22:23:13.813Z,101694.97
2023-04-30T22:26:16.762Z,101692.59
2023-04-30T22:29:19.764Z,101688.16
2023-04-30T22:32:22.808Z,101686.66
2023-04-30T22:35:28.729Z,101688.53
2023-04-30T22:38:32.255Z,101681.88
2023-04-30T22:41:35.381Z,101690.06
2023-04-30T22:44:38.711Z,101683.97
2023-04-30T22:47:43.028Z,101688.41
2023-04-30T22:50:47.837Z,101681.56
2023-04-30T22:53:50.996Z,101681.66
2023-04-30T22:56:55.062Z,101684.38
2023-04-30T22:59:58.348Z,101674.22
2023-04-30T23:03:01.689Z,101672.81
2023-04-30T23:06:06.913Z,101670.28
2023-04-30T23:09:10.288Z,101668.13
2023-04-30T23:12:13.556Z,101665.59
2023-04-30T23:15:17.908Z,101671.78
2023-04-30T23:18:21.455Z,101662.50
2023-04-30T23:21:26.768Z,101662.56
2023-04-30T23:24:35.054Z,101658.41
2023-04-30T23:27:38.112Z,101658.34
2023-04-30T23:30:41.368Z,101656.72
2023-04-30T23:33:44.513Z,101647.72
2023-04-30T23:36:48.879Z,101645.91
2023-04-30T23:39:51.977Z,101640.69
2023-04-30T23:42:54.935Z,101642.81
2023-04-30T23:45:58.221Z,101642.81
2023-04-30T23:49:01.262Z,101643.72
2023-04-30T23:52:06.232Z,101641.16
2023-04-30T23:55:12.405Z,101632.53
2023-04-30T23:58:15.526Z,101632.84
